Time;durP1;ratioP1;P1;durP2;ratioP2;P2;SDS_P1;SDS_P2;PMS_P1;PMS_P2;Temp;Humidity;BMP_temperature;BMP_pressure;BME280_temperature;BME280_humidity;BME280_pressure;Samples;Min_cycle;Max_cycle;Signal;HPM_P1;HPM_P2
2021/04/20 00:00:22;;;;;;;36.13;24.58;;;7.20;99.90;;;;;;5055366;28;20253;-79
2021/04/20 00:02:49;;;;;;;36.63;23.90;;;7.20;99.90;;;;;;5053867;28;20689;-79
2021/04/20 00:05:17;;;;;;;36.65;24.00;;;7.20;99.90;;;;;;5054044;28;20265;-79
2021/04/20 00:07:44;;;;;;;36.67;24.98;;;7.00;99.90;;;;;;5049526;28;20238;-80
2021/04/20 00:10:12;;;;;;;35.75;23.88;;;7.10;99.90;;;;;;5035085;28;20203;-80
2021/04/20 00:12:38;;;;;;;35.60;23.00;;;7.20;99.90;;;;;;5033699;28;20282;-79
2021/04/20 00:15:10;;;;;;;37.55;24.00;;;7.00;99.90;;;;;;5034109;28;20694;-79
2021/04/20 00:17:36;;;;;;;35.72;23.20;;;7.10;99.90;;;;;;5034349;28;20255;-80
2021/04/20 00:20:07;;;;;;;38.92;24.45;;;7.00;99.90;;;;;;5035120;28;20294;-79
2021/04/20 00:22:36;;;;;;;37.20;24.55;;;7.00;99.90;;;;;;5036317;28;20290;-79
2021/04/20 00:25:03;;;;;;;35.03;22.80;;;7.00;99.90;;;;;;5038967;28;20353;-78
2021/04/20 00:27:29;;;;;;;38.13;22.60;;;6.90;99.90;;;;;;5051508;28;20218;-79
2021/04/20 00:29:56;;;;;;;36.60;24.58;;;7.00;99.90;;;;;;5057679;28;20234;-80
2021/04/20 00:32:23;;;;;;;34.45;23.95;;;7.00;99.90;;;;;;5055698;28;20233;-80
2021/04/20 00:34:49;;;;;;;41.25;24.75;;;6.90;99.90;;;;;;5055354;28;20231;-80
2021/04/20 00:37:16;;;;;;;36.45;23.60;;;6.90;99.90;;;;;;5054804;28;20539;-80
2021/04/20 00:39:42;;;;;;;35.08;24.08;;;6.90;99.90;;;;;;5034338;28;20603;-80
2021/04/20 00:42:09;;;;;;;39.65;24.45;;;7.00;99.90;;;;;;5036110;28;20585;-79
2021/04/20 00:44:36;;;;;;;41.03;25.48;;;7.10;99.90;;;;;;5035866;28;20293;-79
2021/04/20 00:47:03;;;;;;;38.15;24.08;;;6.80;99.90;;;;;;5038033;28;20314;-80
2021/04/20 00:49:31;;;;;;;33.47;23.85;;;7.00;99.90;;;;;;5037373;28;20241;-80
2021/04/20 00:51:58;;;;;;;40.40;23.52;;;7.00;99.90;;;;;;5038443;28;20235;-81
2021/04/20 00:54:26;;;;;;;30.08;21.90;;;7.00;99.90;;;;;;5037648;28;20230;-81
2021/04/20 00:56:53;;;;;;;34.38;24.08;;;6.90;99.90;;;;;;5035398;28;20207;-81
2021/04/20 00:59:20;;;;;;;37.78;24.08;;;7.00;99.90;;;;;;5035830;28;20313;-80
2021/04/20 01:01:47;;;;;;;37.05;24.27;;;6.90;99.90;;;;;;5034945;28;20278;-80
2021/04/20 01:04:14;;;;;;;36.25;23.02;;;6.90;99.90;;;;;;5035373;28;20285;-80
2021/04/20 01:06:43;;;;;;;36.83;24.05;;;7.00;99.90;;;;;;5034866;28;20241;-80
2021/04/20 01:09:10;;;;;;;32.83;21.60;;;6.70;99.90;;;;;;5034519;28;20285;-80
2021/04/20 01:11:38;;;;;;;32.78;22.60;;;6.80;99.90;;;;;;5034989;28;20275;-80
2021/04/20 01:14:06;;;;;;;37.03;23.75;;;6.50;99.90;;;;;;5034500;28;20223;-80
2021/04/20 01:16:34;;;;;;;33.30;22.48;;;6.80;99.90;;;;;;5049941;28;20230;-81
2021/04/20 01:19:00;;;;;;;36.03;22.90;;;6.50;99.90;;;;;;5056471;28;20254;-79
2021/04/20 01:21:27;;;;;;;35.47;22.38;;;6.70;99.90;;;;;;5056992;28;20233;-79
2021/04/20 01:24:00;;;;;;;31.13;22.00;;;6.70;99.90;;;;;;5058738;28;20211;-79
2021/04/20 01:26:31;;;;;;;34.08;22.23;;;6.60;99.90;;;;;;5059558;28;20277;-80
2021/04/20 01:28:58;;;;;;;33.35;22.58;;;6.60;99.90;;;;;;5058929;28;20290;-79
2021/04/20 01:31:27;;;;;;;36.63;22.15;;;6.50;99.90;;;;;;5057518;28;20635;-79
2021/04/20 01:33:54;;;;;;;36.65;22.67;;;6.60;99.90;;;;;;5059031;28;20289;-79
2021/04/20 01:36:22;;;;;;;34.50;21.58;;;6.50;99.90;;;;;;5055970;28;20618;-79
2021/04/20 01:38:49;;;;;;;36.63;22.35;;;6.70;99.90;;;;;;5055391;28;20308;-80
2021/04/20 01:41:17;;;;;;;31.52;21.15;;;6.40;99.90;;;;;;5056804;28;20201;-80
2021/04/20 01:43:45;;;;;;;31.60;21.55;;;6.40;99.90;;;;;;5059593;28;20244;-80
2021/04/20 01:46:13;;;;;;;31.80;21.63;;;6.50;99.90;;;;;;5058499;28;20210;-79
2021/04/20 01:48:39;;;;;;;36.05;23.73;;;6.40;99.90;;;;;;5052832;28;20226;-79
2021/04/20 01:51:05;;;;;;;35.63;23.08;;;6.50;99.90;;;;;;5037504;28;20219;-79
2021/04/20 01:53:32;;;;;;;34.50;23.83;;;6.30;99.90;;;;;;5039249;28;20203;-80
2021/04/20 01:56:00;;;;;;;29.30;21.10;;;6.40;99.90;;;;;;5041668;28;20337;-79
2021/04/20 01:58:27;;;;;;;34.47;22.80;;;6.30;99.90;;;;;;5037059;28;20226;-79
2021/04/20 02:00:56;;;;;;;30.05;21.45;;;6.40;99.90;;;;;;5032971;28;20203;-80
2021/04/20 02:03:23;;;;;;;33.80;21.45;;;6.50;99.90;;;;;;5032794;28;20372;-80
2021/04/20 02:05:49;;;;;;;34.25;21.92;;;6.50;99.90;;;;;;5030147;28;20781;-80
2021/04/20 02:08:16;;;;;;;30.80;20.73;;;6.40;99.90;;;;;;5030819;28;20231;-80
2021/04/20 02:10:43;;;;;;;33.05;22.30;;;6.50;99.90;;;;;;5033343;28;20293;-79
2021/04/20 02:13:10;;;;;;;29.20;20.73;;;6.40;99.90;;;;;;5032522;28;20199;-80
2021/04/20 02:15:36;;;;;;;33.28;19.83;;;6.60;99.90;;;;;;5032279;28;20717;-80
2021/04/20 02:18:05;;;;;;;32.05;21.10;;;6.30;99.90;;;;;;5032403;28;20302;-80
2021/04/20 02:20:34;;;;;;;29.15;20.38;;;6.50;99.90;;;;;;5032537;28;20305;-80
2021/04/20 02:23:02;;;;;;;27.80;19.17;;;6.50;99.90;;;;;;5032297;28;20199;-79
2021/04/20 02:25:29;;;;;;;29.25;20.65;;;6.40;99.90;;;;;;5035149;28;20721;-80
2021/04/20 02:27:55;;;;;;;30.70;19.52;;;6.30;99.90;;;;;;5036130;28;20314;-79
2021/04/20 02:30:22;;;;;;;27.33;18.40;;;6.20;99.90;;;;;;5036477;28;20203;-79
2021/04/20 02:32:49;;;;;;;31.00;20.02;;;6.30;99.90;;;;;;5036301;28;20302;-79
2021/04/20 02:35:19;;;;;;;31.45;20.13;;;6.40;99.90;;;;;;5039525;28;20262;-79
2021/04/20 02:37:46;;;;;;;28.40;19.55;;;6.40;99.90;;;;;;5048590;28;20243;-79
2021/04/20 02:40:19;;;;;;;27.83;19.05;;;6.30;99.90;;;;;;5053169;28;20199;-80
2021/04/20 02:42:45;;;;;;;32.10;20.15;;;6.30;99.90;;;;;;5064735;28;20218;-80
2021/04/20 02:45:12;;;;;;;29.85;21.02;;;6.10;99.90;;;;;;5065238;28;20264;-81
2021/04/20 02:47:39;;;;;;;32.30;21.60;;;6.20;99.90;;;;;;5064795;28;20256;-80
2021/04/20 02:50:08;;;;;;;32.65;21.13;;;6.20;99.90;;;;;;5067739;28;20260;-80
2021/04/20 02:52:36;;;;;;;30.23;20.13;;;6.20;99.90;;;;;;5064298;28;20238;-81
2021/04/20 02:55:05;;;;;;;38.10;24.75;;;6.40;99.90;;;;;;5065722;28;20265;-80
2021/04/20 02:57:36;;;;;;;32.42;21.23;;;6.30;99.90;;;;;;5067413;28;20258;-80
2021/04/20 03:00:05;;;;;;;38.20;24.73;;;6.50;99.90;;;;;;5064821;28;20290;-79
2021/04/20 03:02:32;;;;;;;38.80;23.92;;;6.50;99.90;;;;;;5045342;28;20214;-80
2021/04/20 03:04:58;;;;;;;36.85;23.63;;;6.30;99.90;;;;;;5037249;28;20297;-81
2021/04/20 03:07:25;;;;;;;42.38;27.60;;;6.50;99.90;;;;;;5037723;28;20317;-81
2021/04/20 03:09:52;;;;;;;42.28;27.08;;;6.50;99.90;;;;;;5036665;28;20253;-80
2021/04/20 03:12:21;;;;;;;44.25;27.95;;;6.60;99.90;;;;;;5037982;28;20290;-80
2021/04/20 03:14:49;;;;;;;43.92;27.60;;;6.30;99.90;;;;;;5038082;28;20242;-81
2021/04/20 03:17:18;;;;;;;46.75;29.13;;;6.60;99.90;;;;;;5037455;28;20215;-81
2021/04/20 03:19:44;;;;;;;41.70;28.10;;;6.30;99.90;;;;;;5036944;28;20293;-82
2021/04/20 03:22:13;;;;;;;45.80;27.00;;;6.30;99.90;;;;;;5037654;28;20290;-81
2021/04/20 03:25:17;;;;;;;47.40;28.80;;;6.50;99.90;;;;;;5036399;28;20275;-80
2021/04/20 03:27:46;;;;;;;44.05;28.55;;;6.40;99.90;;;;;;4997408;28;20251;-80
2021/04/20 03:30:14;;;;;;;37.08;25.52;;;6.50;99.90;;;;;;5057109;28;20289;-80
2021/04/20 03:32:46;;;;;;;40.40;27.45;;;6.60;99.90;;;;;;5059254;28;20237;-80
2021/04/20 03:35:17;;;;;;;43.45;28.30;;;6.50;99.90;;;;;;5059579;28;20218;-80
2021/04/20 03:37:49;;;;;;;41.15;28.13;;;6.60;99.90;;;;;;5057769;28;20704;-81
2021/04/20 03:40:18;;;;;;;40.92;27.10;;;6.30;99.90;;;;;;5041244;28;20211;-80
2021/04/20 03:42:51;;;;;;;35.88;25.15;;;6.40;99.90;;;;;;5037398;28;20275;-81
2021/04/20 03:45:22;;;;;;;39.55;26.70;;;6.50;99.90;;;;;;5037880;28;20211;-81
2021/04/20 03:47:51;;;;;;;36.90;25.10;;;6.50;99.90;;;;;;5036712;28;20227;-81
2021/04/20 03:50:23;;;;;;;34.65;24.95;;;6.40;99.90;;;;;;5036822;28;20203;-80
2021/04/20 03:52:51;;;;;;;32.13;23.60;;;6.60;99.90;;;;;;5036899;28;20294;-81
2021/04/20 03:55:23;;;;;;;35.42;25.67;;;6.60;99.90;;;;;;5036035;28;20373;-81
2021/04/20 03:57:50;;;;;;;37.92;25.65;;;6.40;99.90;;;;;;5017998;28;20315;-82
2021/04/20 04:00:18;;;;;;;33.78;23.02;;;6.40;99.90;;;;;;5019921;28;20725;-81
2021/04/20 04:02:46;;;;;;;36.22;24.23;;;6.20;99.90;;;;;;5024024;28;20235;-80
2021/04/20 04:05:17;;;;;;;33.50;23.02;;;6.30;99.90;;;;;;5020709;28;20254;-81
2021/04/20 04:07:46;;;;;;;25.98;20.33;;;6.20;99.90;;;;;;5027953;28;20243;-81
2021/04/20 04:10:14;;;;;;;34.58;23.35;;;6.20;99.90;;;;;;5045569;28;20288;-81
2021/04/20 04:12:43;;;;;;;31.58;21.67;;;6.10;99.90;;;;;;5054805;28;20293;-81
2021/04/20 04:15:11;;;;;;;33.25;22.90;;;6.30;99.90;;;;;;5037145;28;20309;-81
2021/04/20 04:17:41;;;;;;;29.05;21.00;;;6.10;99.90;;;;;;5038330;28;20278;-81
2021/04/20 04:20:11;;;;;;;32.28;21.67;;;6.20;99.90;;;;;;5036776;28;20243;-81
2021/04/20 04:22:42;;;;;;;28.40;19.92;;;6.30;99.90;;;;;;5036320;28;20609;-80
2021/04/20 04:25:14;;;;;;;31.77;21.95;;;6.00;99.90;;;;;;5054885;28;20378;-81
2021/04/20 04:27:45;;;;;;;27.85;20.23;;;6.10;99.90;;;;;;5059676;28;20254;-81
2021/04/20 04:30:15;;;;;;;27.90;19.30;;;6.30;99.90;;;;;;5057705;28;20245;-80
2021/04/20 04:32:44;;;;;;;27.52;21.17;;;6.30;99.90;;;;;;5056226;28;20208;-81
2021/04/20 04:35:11;;;;;;;28.17;21.10;;;6.20;99.90;;;;;;5055709;28;20292;-81
2021/04/20 04:37:39;;;;;;;27.50;18.30;;;6.20;99.90;;;;;;5050436;28;20255;-81
2021/04/20 04:40:08;;;;;;;30.30;21.02;;;6.20;99.90;;;;;;5088274;22;20229;-84
2021/04/20 04:42:34;;;;;;;29.05;19.27;;;6.00;99.90;;;;;;5086011;28;20213;-84
2021/04/20 04:45:04;;;;;;;26.73;19.05;;;6.10;99.90;;;;;;5085382;28;20228;-85
2021/04/20 04:47:32;;;;;;;32.53;22.30;;;6.10;99.90;;;;;;5085864;28;20226;-85
2021/04/20 04:50:01;;;;;;;26.00;18.77;;;6.00;99.90;;;;;;5085696;28;20313;-85
2021/04/20 04:52:29;;;;;;;31.77;21.65;;;5.80;99.90;;;;;;5084870;28;20269;-85
2021/04/20 04:54:56;;;;;;;29.52;20.30;;;5.80;99.90;;;;;;5085004;28;20309;-84
2021/04/20 04:57:26;;;;;;;31.48;21.40;;;5.80;99.90;;;;;;5084471;28;20197;-84
2021/04/20 04:59:54;;;;;;;28.35;20.35;;;6.00;99.90;;;;;;5082030;28;20225;-83
2021/04/20 05:02:22;;;;;;;29.50;21.48;;;5.90;99.90;;;;;;5077460;28;20259;-83
2021/04/20 05:04:49;;;;;;;27.27;20.35;;;6.10;99.90;;;;;;5083412;28;20217;-84
2021/04/20 05:07:16;;;;;;;29.27;19.63;;;6.20;99.90;;;;;;5086608;28;20238;-84
2021/04/20 05:09:42;;;;;;;28.73;20.13;;;6.20;99.90;;;;;;5085979;28;20217;-84
2021/04/20 05:12:11;;;;;;;28.52;18.55;;;6.10;99.90;;;;;;5087151;28;20209;-84
2021/04/20 05:14:37;;;;;;;28.20;19.98;;;6.10;99.90;;;;;;5089390;28;20221;-83
2021/04/20 05:17:05;;;;;;;26.83;20.23;;;6.20;99.90;;;;;;5084102;28;20194;-85
2021/04/20 05:19:35;;;;;;;27.52;20.45;;;6.10;99.90;;;;;;5084125;28;20218;-84
2021/04/20 05:22:01;;;;;;;31.13;20.08;;;6.00;99.90;;;;;;5086935;28;20210;-84
2021/04/20 05:24:28;;;;;;;30.00;21.33;;;6.10;99.90;;;;;;5089930;28;20197;-84
2021/04/20 05:26:55;;;;;;;29.70;19.90;;;6.10;99.90;;;;;;5086716;28;20259;-84
2021/04/20 05:29:22;;;;;;;27.30;19.13;;;5.90;99.90;;;;;;5086834;28;20290;-85
2021/04/20 05:31:50;;;;;;;32.70;21.27;;;6.20;99.90;;;;;;5087677;28;20382;-85
2021/04/20 05:34:19;;;;;;;32.03;19.88;;;6.20;99.90;;;;;;5086775;28;20217;-85
2021/04/20 05:36:47;;;;;;;28.48;19.45;;;6.10;99.90;;;;;;5088173;28;20194;-85
2021/04/20 05:39:15;;;;;;;30.20;20.15;;;6.20;99.90;;;;;;5088219;28;20607;-85
2021/04/20 05:41:42;;;;;;;28.50;20.73;;;6.30;99.90;;;;;;5085316;28;20202;-84
2021/04/20 05:44:10;;;;;;;28.83;20.92;;;6.50;99.90;;;;;;5085901;28;20205;-84
2021/04/20 05:46:37;;;;;;;30.27;21.10;;;6.50;99.90;;;;;;5086923;28;20201;-85
2021/04/20 05:49:04;;;;;;;32.78;20.27;;;6.40;99.90;;;;;;5090742;28;20232;-86
2021/04/20 05:51:31;;;;;;;33.75;21.08;;;6.50;99.90;;;;;;5083585;28;20206;-86
2021/04/20 05:53:59;;;;;;;31.73;21.52;;;6.50;99.90;;;;;;5081361;28;20243;-85
2021/04/20 05:56:25;;;;;;;27.65;19.95;;;6.70;99.90;;;;;;5077438;28;20226;-84
2021/04/20 05:58:53;;;;;;;28.42;20.27;;;6.60;99.90;;;;;;5083968;28;20221;-85
2021/04/20 06:01:20;;;;;;;30.90;21.63;;;6.60;99.90;;;;;;5083895;28;20304;-85
2021/04/20 06:03:47;;;;;;;27.25;19.73;;;6.80;99.90;;;;;;5084159;28;20305;-84
2021/04/20 06:06:15;;;;;;;27.75;20.00;;;6.60;99.90;;;;;;5084848;28;20230;-85
2021/04/20 06:08:42;;;;;;;30.35;20.58;;;6.60;99.90;;;;;;5084238;28;20229;-85
2021/04/20 06:11:10;;;;;;;27.48;20.90;;;6.70;99.90;;;;;;5083327;28;20211;-85
2021/04/20 06:13:37;;;;;;;27.45;20.85;;;7.00;99.90;;;;;;5084575;28;20229;-85
2021/04/20 06:16:05;;;;;;;28.92;20.35;;;7.20;99.90;;;;;;5081486;28;20257;-86
2021/04/20 06:18:32;;;;;;;31.55;21.17;;;7.10;99.90;;;;;;5074375;28;20214;-84
2021/04/20 06:21:00;;;;;;;35.20;24.70;;;7.00;99.90;;;;;;5074225;28;20201;-86
2021/04/20 06:23:27;;;;;;;29.88;21.05;;;7.10;99.90;;;;;;5075214;28;20300;-86
2021/04/20 06:25:57;;;;;;;32.20;22.73;;;7.20;99.90;;;;;;5074922;28;20267;-86
2021/04/20 06:28:25;;;;;;;34.85;24.08;;;7.10;99.90;;;;;;5073181;28;20198;-85
2021/04/20 06:30:52;;;;;;;32.90;22.15;;;7.10;99.90;;;;;;5054846;28;20210;-86
2021/04/20 06:33:19;;;;;;;36.08;24.25;;;7.20;99.90;;;;;;5054230;28;20678;-84
2021/04/20 06:35:46;;;;;;;33.20;23.42;;;7.30;99.90;;;;;;5054738;28;20290;-86
2021/04/20 06:38:14;;;;;;;35.97;25.95;;;7.30;99.90;;;;;;5072064;28;20187;-82
2021/04/20 06:40:45;;;;;;;45.80;26.70;;;7.30;99.90;;;;;;5071643;28;20667;-85
2021/04/20 06:43:13;;;;;;;34.58;24.35;;;7.50;99.90;;;;;;5067706;28;20202;-87
2021/04/20 06:45:46;;;;;;;34.90;24.70;;;7.50;99.90;;;;;;5055636;28;20266;-86
2021/04/20 06:48:23;;;;;;;34.53;24.25;;;7.70;99.90;;;;;;5056106;28;20237;-86
2021/04/20 06:50:55;;;;;;;88.13;28.77;;;7.70;99.90;;;;;;5055847;28;20234;-84
2021/04/20 06:53:26;;;;;;;37.53;24.42;;;8.00;99.90;;;;;;5055473;28;20234;-84
2021/04/20 06:56:04;;;;;;;57.25;26.98;;;8.00;99.90;;;;;;5055607;28;20584;-85
2021/04/20 06:58:40;;;;;;;46.05;25.67;;;8.00;99.90;;;;;;5054586;28;20317;-86
2021/04/20 07:01:12;;;;;;;49.03;28.08;;;8.30;99.90;;;;;;5054252;28;20216;-86
2021/04/20 07:03:50;;;;;;;38.00;26.42;;;8.30;99.90;;;;;;5054529;28;20202;-87
2021/04/20 07:06:21;;;;;;;35.55;25.63;;;8.40;99.90;;;;;;5055064;28;20873;-87
2021/04/20 07:08:57;;;;;;;36.35;25.20;;;8.50;99.90;;;;;;5054756;28;20265;-86
2021/04/20 07:11:26;;;;;;;36.03;24.45;;;8.70;99.90;;;;;;5059267;28;20214;-86
2021/04/20 07:13:55;;;;;;;35.03;26.42;;;8.50;99.90;;;;;;5058566;28;20215;-86
2021/04/20 07:16:33;;;;;;;36.20;24.87;;;8.70;99.90;;;;;;5057995;28;20211;-86
2021/04/20 07:19:21;;;;;;;36.33;26.38;;;8.60;99.90;;;;;;5058870;28;20555;-84
2021/04/20 07:22:12;;;;;;;35.00;26.30;;;8.60;99.90;;;;;;5057936;28;20189;-85
2021/04/20 07:24:54;;;;;;;39.25;26.40;;;8.90;99.90;;;;;;5051100;28;20198;-87
2021/04/20 07:27:35;;;;;;;34.70;24.60;;;9.00;99.90;;;;;;5077112;28;20206;-86
2021/04/20 07:30:13;;;;;;;35.10;26.00;;;9.20;99.90;;;;;;5076141;28;20234;-84
2021/04/20 07:33:08;;;;;;;40.13;26.63;;;9.30;99.90;;;;;;5077640;28;20501;-87
2021/04/20 07:35:37;;;;;;;38.07;27.17;;;9.40;99.90;;;;;;5077447;28;20563;-85
2021/04/20 07:38:16;;;;;;;39.43;26.63;;;9.50;99.90;;;;;;5079173;28;20514;-86
2021/04/20 07:40:52;;;;;;;34.50;26.57;;;9.50;99.90;;;;;;5070257;28;20446;-86
2021/04/20 07:43:31;;;;;;;37.03;26.67;;;9.50;99.90;;;;;;5081227;28;20550;-84
2021/04/20 07:46:04;;;;;;;36.80;27.45;;;9.50;99.90;;;;;;5083733;28;20448;-86
2021/04/20 07:48:43;;;;;;;40.53;25.45;;;9.30;99.90;;;;;;5090358;28;20222;-84
2021/04/20 07:51:14;;;;;;;31.07;21.87;;;9.50;99.90;;;;;;5092288;28;20222;-83
2021/04/20 07:53:59;;;;;;;33.40;21.37;;;9.20;99.90;;;;;;5089646;28;20922;-85
2021/04/20 07:56:36;;;;;;;32.20;22.27;;;9.70;99.90;;;;;;5088823;28;20580;-85
2021/04/20 07:59:10;;;;;;;33.80;25.03;;;9.70;99.90;;;;;;5090508;28;20762;-85
2021/04/20 08:01:42;;;;;;;34.60;23.00;;;9.70;99.90;;;;;;5087781;28;20448;-84
2021/04/20 08:04:21;;;;;;;31.20;22.15;;;9.70;99.90;;;;;;5087201;28;20445;-84
2021/04/20 08:06:52;;;;;;;32.17;24.43;;;9.90;99.90;;;;;;5082284;28;20206;-85
2021/04/20 08:09:24;;;;;;;32.37;23.67;;;10.00;99.90;;;;;;5081678;28;20613;-84
2021/04/20 08:11:55;;;;;;;30.03;23.17;;;10.10;99.90;;;;;;5071337;28;20520;-87
2021/04/20 08:14:27;;;;;;;32.40;23.10;;;10.30;99.90;;;;;;5069355;28;20437;-84
2021/04/20 08:17:02;;;;;;;29.50;22.30;;;10.30;99.90;;;;;;5067571;28;20499;-86
2021/04/20 08:19:34;;;;;;;32.27;23.47;;;10.50;99.90;;;;;;5061512;28;20473;-85
2021/04/20 08:22:01;;;;;;;30.87;22.70;;;10.60;99.90;;;;;;5061310;28;20499;-85
2021/04/20 08:24:31;;;;;;;30.20;23.07;;;10.80;99.90;;;;;;5062255;28;20444;-84
2021/04/20 08:27:04;;;;;;;29.70;22.73;;;11.00;99.90;;;;;;5058617;28;20477;-85
2021/04/20 08:29:32;;;;;;;27.57;22.03;;;11.00;99.90;;;;;;5076382;28;20475;-87
2021/04/20 08:32:04;;;;;;;31.73;25.33;;;11.10;99.90;;;;;;5077535;28;20427;-86
2021/04/20 08:34:37;;;;;;;27.33;21.90;;;11.10;99.90;;;;;;5079308;28;20938;-83
2021/04/20 08:37:14;;;;;;;31.70;23.83;;;11.10;99.90;;;;;;5092775;28;20506;-83
2021/04/20 08:39:49;;;;;;;27.80;21.87;;;11.30;99.90;;;;;;5086897;28;20548;-86
2021/04/20 08:42:22;;;;;;;27.97;21.77;;;11.40;99.90;;;;;;5075886;28;20786;-85
2021/04/20 08:44:56;;;;;;;28.00;22.83;;;11.70;99.90;;;;;;5063932;28;20453;-86
2021/04/20 08:47:26;;;;;;;28.97;21.70;;;11.80;99.90;;;;;;5065072;28;20473;-85
2021/04/20 08:49:56;;;;;;;28.90;23.53;;;11.80;99.90;;;;;;5062154;28;20497;-87
2021/04/20 08:52:43;;;;;;;28.43;22.90;;;11.90;99.90;;;;;;5062414;28;20451;-88
2021/04/20 08:55:20;;;;;;;28.93;22.67;;;11.90;99.90;;;;;;5065108;28;20461;-84
2021/04/20 08:58:04;;;;;;;44.30;25.60;;;11.90;99.90;;;;;;5080053;28;20945;-86
2021/04/20 09:00:40;;;;;;;32.20;22.57;;;12.00;99.90;;;;;;5086240;28;20433;-86
2021/04/20 09:03:20;;;;;;;30.50;24.10;;;11.90;99.90;;;;;;5094071;28;20400;-85
2021/04/20 09:05:51;;;;;;;29.23;22.83;;;11.80;99.90;;;;;;5096469;28;20419;-85
2021/04/20 09:08:32;;;;;;;31.90;23.60;;;11.80;99.90;;;;;;5093321;28;20475;-86
2021/04/20 09:11:07;;;;;;;32.87;24.13;;;11.80;99.90;;;;;;5087944;28;20428;-86
2021/04/20 09:13:41;;;;;;;31.77;22.70;;;11.80;99.90;;;;;;5082501;28;20483;-87
2021/04/20 09:16:12;;;;;;;31.47;22.23;;;11.80;99.90;;;;;;5082733;28;20933;-88
2021/04/20 09:18:41;;;;;;;31.50;23.63;;;11.90;99.90;;;;;;5082194;28;20547;-84
2021/04/20 09:21:14;;;;;;;33.40;22.73;;;11.90;99.90;;;;;;5080690;28;20415;-88
2021/04/20 09:24:07;;;;;;;30.07;22.70;;;11.90;99.90;;;;;;5081543;28;20501;-87
2021/04/20 09:26:41;;;;;;;28.70;19.93;;;12.00;99.90;;;;;;5088956;28;20396;-85
2021/04/20 09:29:14;;;;;;;30.43;22.90;;;12.00;99.90;;;;;;5090893;28;20438;-84
2021/04/20 09:31:52;;;;;;;47.10;25.37;;;12.10;99.90;;;;;;5091146;28;20476;-84
2021/04/20 09:34:18;;;;;;;28.17;22.03;;;12.00;99.90;;;;;;5086270;28;20451;-84
2021/04/20 09:36:47;;;;;;;25.40;20.37;;;12.20;99.90;;;;;;5085514;28;20807;-84
2021/04/20 09:39:15;;;;;;;39.23;20.63;;;12.40;99.90;;;;;;5088091;28;20442;-85
2021/04/20 09:41:44;;;;;;;29.80;19.80;;;12.50;99.90;;;;;;5085267;28;20490;-86
2021/04/20 09:44:19;;;;;;;33.80;22.50;;;12.60;99.90;;;;;;5093597;28;20440;-85
2021/04/20 09:47:03;;;;;;;32.20;20.87;;;12.80;99.90;;;;;;5080227;28;20465;-85
2021/04/20 09:49:47;;;;;;;23.67;18.47;;;13.00;99.90;;;;;;5072209;28;20476;-84
2021/04/20 09:52:18;;;;;;;25.23;18.80;;;13.20;99.90;;;;;;5073980;28;20449;-84
2021/04/20 09:54:52;;;;;;;28.83;21.23;;;13.10;99.90;;;;;;5071009;28;20493;-84
2021/04/20 09:57:23;;;;;;;23.53;18.37;;;13.10;99.90;;;;;;5067561;28;20531;-86
2021/04/20 09:59:54;;;;;;;27.07;21.10;;;13.20;99.90;;;;;;5061312;28;20499;-87
2021/04/20 10:02:59;;;;;;;24.93;17.77;;;13.20;99.90;;;;;;5063439;28;20430;-84
2021/04/20 10:05:35;;;;;;;33.97;21.73;;;13.20;99.90;;;;;;5045724;28;20430;-83
2021/04/20 10:08:23;;;;;;;27.20;18.67;;;12.90;99.90;;;;;;5080743;28;20422;-85
2021/04/20 10:10:53;;;;;;;24.70;19.03;;;12.80;99.90;;;;;;5081452;28;20459;-82
2021/04/20 10:13:48;;;;;;;22.13;18.00;;;12.80;99.90;;;;;;5080869;28;20415;-84
2021/04/20 10:16:18;;;;;;;27.10;19.70;;;12.90;99.90;;;;;;5080375;28;20466;-85
2021/04/20 10:18:57;;;;;;;21.43;16.13;;;13.00;99.90;;;;;;5080162;28;20502;-84
2021/04/20 10:21:28;;;;;;;21.87;15.03;;;13.10;99.90;;;;;;5080861;28;20512;-85
2021/04/20 10:24:06;;;;;;;18.80;13.63;;;13.50;99.90;;;;;;5084358;28;20773;-84
2021/04/20 10:26:40;;;;;;;19.87;14.30;;;13.50;99.90;;;;;;5084815;28;20487;-84
2021/04/20 10:29:13;;;;;;;28.20;15.63;;;13.60;99.90;;;;;;5081892;28;20448;-84
2021/04/20 10:31:45;;;;;;;19.47;13.20;;;13.60;99.90;;;;;;5078949;28;20503;-85
2021/04/20 10:34:16;;;;;;;21.20;16.60;;;13.50;99.90;;;;;;5078697;28;20918;-84
2021/04/20 10:36:48;;;;;;;22.33;16.50;;;13.40;99.90;;;;;;5060458;28;20457;-86
2021/04/20 10:39:16;;;;;;;20.10;15.70;;;13.30;99.90;;;;;;5057098;28;21082;-86
2021/04/20 10:41:44;;;;;;;20.93;15.77;;;13.40;99.90;;;;;;5070856;28;20513;-85
2021/04/20 10:44:12;;;;;;;22.13;15.50;;;13.60;99.90;;;;;;5089490;28;20490;-85
2021/04/20 10:46:39;;;;;;;18.77;14.90;;;13.60;99.90;;;;;;5097254;28;20497;-86
2021/04/20 10:49:07;;;;;;;22.70;13.13;;;13.90;99.90;;;;;;5098070;28;20975;-87
2021/04/20 10:51:36;;;;;;;21.53;13.30;;;14.00;99.90;;;;;;5093316;28;20804;-87
2021/04/20 10:54:03;;;;;;;17.47;14.13;;;14.20;99.90;;;;;;5060108;28;20543;-84
2021/04/20 10:56:32;;;;;;;18.70;14.07;;;14.30;99.90;;;;;;5060688;28;20584;-90
2021/04/20 10:59:01;;;;;;;20.40;13.73;;;14.30;99.90;;;;;;5060150;28;20478;-86
2021/04/20 11:01:29;;;;;;;16.50;13.60;;;14.20;99.50;;;;;;5058155;28;20467;-87
2021/04/20 11:03:59;;;;;;;17.73;13.20;;;14.30;99.70;;;;;;5060250;28;20472;-86
2021/04/20 11:07:06;;;;;;;18.03;13.57;;;14.60;99.50;;;;;;5059209;28;20493;-87
2021/04/20 11:09:34;;;;;;;15.87;12.83;;;14.90;98.50;;;;;;5074507;28;20450;-87
2021/04/20 11:12:12;;;;;;;17.40;11.70;;;14.80;97.80;;;;;;5080726;28;20499;-84
2021/04/20 11:14:39;;;;;;;17.90;14.07;;;14.50;98.40;;;;;;5088636;28;20449;-86
2021/04/20 11:17:12;;;;;;;18.90;14.40;;;14.50;98.60;;;;;;5096410;28;20456;-83
2021/04/20 11:19:45;;;;;;;24.00;14.93;;;14.40;98.50;;;;;;5093709;28;20483;-86
2021/04/20 11:22:14;;;;;;;21.33;14.03;;;14.30;98.60;;;;;;5089828;28;20382;-85
2021/04/20 11:24:44;;;;;;;17.57;13.90;;;14.30;98.20;;;;;;5081912;28;20501;-85
2021/04/20 11:27:13;;;;;;;16.60;12.80;;;14.50;98.00;;;;;;5082263;28;20423;-86
2021/04/20 11:29:46;;;;;;;14.70;11.43;;;14.70;97.80;;;;;;5086106;28;20560;-85
2021/04/20 11:32:19;;;;;;;15.43;12.83;;;14.80;96.90;;;;;;5091616;28;20437;-84
2021/04/20 11:34:49;;;;;;;17.87;12.90;;;14.80;96.80;;;;;;5091198;28;20424;-86
2021/04/20 11:37:21;;;;;;;17.73;13.27;;;14.60;96.70;;;;;;5080295;28;20923;-85
2021/04/20 11:39:54;;;;;;;15.53;12.43;;;14.40;96.90;;;;;;5078809;28;20484;-86
2021/04/20 11:42:27;;;;;;;17.87;13.27;;;14.50;97.10;;;;;;5077155;28;20531;-86
2021/04/20 11:44:58;;;;;;;18.03;12.87;;;14.70;97.10;;;;;;5057894;28;20458;-86
2021/04/20 11:47:26;;;;;;;15.53;11.87;;;15.00;96.40;;;;;;5056747;28;20882;-87
2021/04/20 11:49:56;;;;;;;22.97;13.60;;;15.00;96.10;;;;;;5057298;28;20440;-87
2021/04/20 11:52:27;;;;;;;16.10;12.73;;;15.10;96.00;;;;;;5057840;28;20441;-87
2021/04/20 11:54:59;;;;;;;15.40;11.10;;;15.30;95.50;;;;;;5057788;28;20511;-85
2021/04/20 11:57:28;;;;;;;16.37;13.40;;;15.20;95.00;;;;;;5058798;28;20434;-87
2021/04/20 11:59:54;;;;;;;13.60;10.37;;;15.30;94.80;;;;;;5065548;28;20455;-85
2021/04/20 12:02:28;;;;;;;15.70;12.10;;;15.10;94.50;;;;;;5070616;28;20449;-85
2021/04/20 12:05:00;;;;;;;16.03;12.33;;;15.20;94.90;;;;;;5067431;28;20411;-86
2021/04/20 12:07:28;;;;;;;14.03;10.37;;;15.10;94.70;;;;;;5068342;28;20456;-84
2021/04/20 12:09:56;;;;;;;15.60;11.40;;;15.10;94.50;;;;;;5065817;28;20450;-86
2021/04/20 12:12:31;;;;;;;15.30;10.90;;;15.00;94.90;;;;;;5067129;28;20460;-88
2021/04/20 12:15:00;;;;;;;14.93;10.90;;;14.90;94.60;;;;;;5059268;28;20476;-86
2021/04/20 12:17:28;;;;;;;14.20;10.03;;;14.90;94.70;;;;;;5059583;28;20491;-87
2021/04/20 12:19:57;;;;;;;17.20;11.90;;;14.90;94.50;;;;;;5059012;28;20476;-86
2021/04/20 12:22:25;;;;;;;14.80;10.60;;;15.10;94.60;;;;;;5059778;28;20442;-85
2021/04/20 12:24:52;;;;;;;14.13;10.70;;;15.10;93.90;;;;;;5058761;28;20457;-86
2021/04/20 12:27:24;;;;;;;11.90;9.80;;;15.10;93.40;;;;;;5057878;28;20472;-87
2021/04/20 12:29:53;;;;;;;12.23;9.60;;;15.30;93.90;;;;;;5058465;28;20534;-87
2021/04/20 12:32:21;;;;;;;12.80;9.93;;;15.50;92.80;;;;;;5057365;28;20411;-85
2021/04/20 12:34:54;;;;;;;12.83;8.93;;;15.60;92.80;;;;;;5057746;28;20436;-87
2021/04/20 12:37:23;;;;;;;13.77;10.50;;;15.50;92.80;;;;;;5057632;28;20476;-87
2021/04/20 12:39:58;;;;;;;13.10;10.07;;;15.60;92.80;;;;;;5057903;28;20538;-85
2021/04/20 12:42:29;;;;;;;20.60;11.03;;;15.60;92.70;;;;;;5077814;28;20443;-86
2021/04/20 12:45:00;;;;;;;12.60;9.50;;;15.60;92.50;;;;;;5098247;28;20430;-88
2021/04/20 12:47:29;;;;;;;11.57;9.10;;;15.80;92.20;;;;;;5069766;28;20536;-88
2021/04/20 12:49:57;;;;;;;11.93;9.40;;;15.80;91.50;;;;;;5057639;28;20475;-87